Time;durP1;ratioP1;P1;durP2;ratioP2;P2;SDS_P1;SDS_P2;PMS_P1;PMS_P2;Temp;Humidity;BMP_temperature;BMP_pressure;BME280_temperature;BME280_humidity;BME280_pressure;Samples;Min_cycle;Max_cycle;Signal;HPM_P1;HPM_P2
2023/10/17 00:02:19;;;;;;;1.60;0.90;;;21.00;43.10;;;;;;4925405;29;20018;-49
2023/10/17 00:04:45;;;;;;;2.35;1.30;;;21.00;43.10;;;;;;4969839;28;20373;-52
2023/10/17 00:07:11;;;;;;;2.47;0.93;;;21.00;43.10;;;;;;5011967;28;20038;-51
2023/10/17 00:09:37;;;;;;;1.88;1.13;;;21.00;43.10;;;;;;5013663;28;20048;-49
2023/10/17 00:14:57;;;;;;;3.55;0.90;;;21.00;43.10;;;;;;5013187;28;20062;-52
2023/10/17 00:17:23;;;;;;;1.13;0.70;;;21.00;43.10;;;;;;4972964;28;20050;-52
2023/10/17 00:19:49;;;;;;;1.38;0.80;;;21.00;43.10;;;;;;4974673;28;20097;-49
2023/10/17 00:22:18;;;;;;;1.30;0.80;;;21.00;43.10;;;;;;4973634;28;20045;-50
2023/10/17 00:24:47;;;;;;;1.10;0.75;;;21.00;43.10;;;;;;4973702;28;20108;-51
2023/10/17 00:27:14;;;;;;;1.98;1.00;;;21.00;43.10;;;;;;4973925;28;20307;-50
2023/10/17 00:29:40;;;;;;;1.67;0.70;;;21.00;43.10;;;;;;4974251;28;20449;-52
2023/10/17 00:32:09;;;;;;;2.35;0.90;;;21.00;43.10;;;;;;4973225;28;20065;-53
2023/10/17 00:34:35;;;;;;;1.98;0.85;;;21.00;43.20;;;;;;4972509;28;20109;-51
2023/10/17 00:37:06;;;;;;;1.13;0.70;;;21.00;43.10;;;;;;4972730;28;20446;-48
2023/10/17 00:39:32;;;;;;;2.45;1.10;;;21.00;43.10;;;;;;4973929;28;20050;-48
2023/10/17 00:44:39;;;;;;;1.65;0.88;;;21.00;43.10;;;;;;4972766;28;20112;-51
2023/10/17 00:47:11;;;;;;;3.20;0.90;;;21.00;43.10;;;;;;4987289;28;20031;-53
2023/10/17 00:49:44;;;;;;;1.40;0.70;;;20.90;43.10;;;;;;4973668;28;20596;-49
2023/10/17 00:52:29;;;;;;;1.20;0.82;;;20.90;43.10;;;;;;4972539;28;20421;-52
2023/10/17 00:54:59;;;;;;;1.35;0.80;;;21.00;43.10;;;;;;4972816;28;20031;-53
2023/10/17 00:57:26;;;;;;;1.48;0.80;;;20.90;43.10;;;;;;4971747;28;20031;-51
2023/10/17 00:59:56;;;;;;;2.70;1.00;;;20.90;43.10;;;;;;4973682;28;20042;-48
2023/10/17 01:02:24;;;;;;;1.40;0.90;;;20.90;43.00;;;;;;4971986;28;20501;-50
2023/10/17 01:04:59;;;;;;;2.67;1.17;;;20.90;43.00;;;;;;4971286;28;20374;-52
2023/10/17 01:07:29;;;;;;;1.77;0.70;;;20.90;43.00;;;;;;4971936;28;20054;-52
2023/10/17 01:10:13;;;;;;;1.55;0.80;;;20.90;43.10;;;;;;4973731;28;20445;-49
2023/10/17 01:15:28;;;;;;;1.17;0.80;;;20.90;43.00;;;;;;4981659;28;21680;-51
2023/10/17 01:17:55;;;;;;;1.00;0.70;;;20.90;43.10;;;;;;5011430;28;20032;-50
2023/10/17 01:20:21;;;;;;;1.67;0.80;;;20.90;43.00;;;;;;5011238;28;20026;-51
2023/10/17 01:22:48;;;;;;;1.88;0.70;;;20.90;43.00;;;;;;4994274;28;20034;-52
2023/10/17 01:25:29;;;;;;;1.30;0.70;;;20.90;43.10;;;;;;4994029;28;20049;-54
2023/10/17 01:27:59;;;;;;;1.80;0.80;;;20.90;43.00;;;;;;5011676;28;20022;-52
2023/10/17 01:30:29;;;;;;;1.02;0.70;;;20.90;43.00;;;;;;5011825;28;20109;-52
2023/10/17 01:32:56;;;;;;;1.17;0.70;;;20.90;43.00;;;;;;4992593;28;20100;-51
2023/10/17 01:35:23;;;;;;;1.40;0.70;;;20.90;43.00;;;;;;5011949;28;20030;-50
2023/10/17 01:37:50;;;;;;;1.40;0.80;;;20.90;43.00;;;;;;5012145;28;20317;-52
2023/10/17 01:40:27;;;;;;;1.13;0.60;;;20.90;42.90;;;;;;4992643;28;20401;-52
2023/10/17 01:42:54;;;;;;;1.33;0.77;;;20.90;42.90;;;;;;4994293;28;20095;-50
2023/10/17 01:45:23;;;;;;;1.50;0.80;;;20.90;42.90;;;;;;4992044;28;20112;-52
2023/10/17 01:47:51;;;;;;;1.35;0.77;;;20.90;42.90;;;;;;5012597;28;20113;-51
2023/10/17 01:50:18;;;;;;;1.00;0.63;;;20.90;42.90;;;;;;4993728;28;20433;-49
2023/10/17 01:52:45;;;;;;;1.30;0.70;;;20.80;43.50;;;;;;5011969;28;20137;-50
2023/10/17 01:55:14;;;;;;;1.42;0.73;;;20.90;42.90;;;;;;5011300;28;20030;-48
2023/10/17 01:57:40;;;;;;;0.95;0.65;;;20.90;42.90;;;;;;5012010;28;20110;-50
2023/10/17 02:00:16;;;;;;;3.35;0.80;;;20.90;42.90;;;;;;4992991;28;21928;-53
2023/10/17 02:02:42;;;;;;;1.45;0.80;;;20.80;42.90;;;;;;5007794;28;20326;-47
2023/10/17 02:05:12;;;;;;;0.68;0.60;;;20.90;43.00;;;;;;5011685;28;20042;-52
2023/10/17 02:07:38;;;;;;;1.60;0.77;;;20.90;43.00;;;;;;5007873;28;20045;-49
2023/10/17 02:10:07;;;;;;;2.80;0.75;;;20.90;43.00;;;;;;5011210;28;20021;-49
2023/10/17 02:12:33;;;;;;;3.88;0.90;;;20.90;43.00;;;;;;4993093;28;20489;-53
2023/10/17 02:15:00;;;;;;;1.05;0.77;;;20.80;42.90;;;;;;5010891;28;20080;-48
2023/10/17 02:17:26;;;;;;;1.92;0.70;;;20.80;42.90;;;;;;5011731;28;20331;-51
2023/10/17 02:19:58;;;;;;;1.45;0.60;;;20.80;42.90;;;;;;5010863;28;20022;-49
2023/10/17 02:22:26;;;;;;;1.35;0.70;;;20.80;42.90;;;;;;5009563;28;20034;-51
2023/10/17 02:24:56;;;;;;;1.63;0.70;;;20.80;43.00;;;;;;5009979;28;20519;-49
2023/10/17 02:27:22;;;;;;;1.60;0.70;;;20.80;43.00;;;;;;4993163;28;20025;-52
2023/10/17 02:29:48;;;;;;;1.38;0.73;;;20.80;42.90;;;;;;5010654;28;20026;-50
2023/10/17 02:32:15;;;;;;;1.83;1.00;;;20.80;42.90;;;;;;5010486;28;20132;-49
2023/10/17 02:34:43;;;;;;;1.70;0.60;;;20.80;43.00;;;;;;5010591;28;20030;-50
2023/10/17 02:37:16;;;;;;;1.25;0.73;;;20.80;43.00;;;;;;4992854;28;20044;-54
2023/10/17 02:39:42;;;;;;;2.15;1.00;;;20.80;42.90;;;;;;5009929;28;20032;-50
2023/10/17 02:42:09;;;;;;;1.40;0.75;;;20.80;42.90;;;;;;4993102;28;20064;-51
2023/10/17 02:44:43;;;;;;;1.10;0.60;;;20.80;43.00;;;;;;4991614;28;20033;-52
2023/10/17 02:47:11;;;;;;;;;;;20.80;43.10;;;;;;5010861;28;20662;-50
2023/10/17 02:49:39;;;;;;;1.23;0.68;;;20.80;43.10;;;;;;5010081;28;19920;-51
2023/10/17 02:52:06;;;;;;;1.00;0.60;;;20.80;43.00;;;;;;5010413;28;20046;-48
2023/10/17 02:54:52;;;;;;;1.90;1.02;;;20.80;43.00;;;;;;4993010;28;20121;-49
2023/10/17 02:57:18;;;;;;;1.67;0.70;;;20.70;43.00;;;;;;5008754;28;20104;-49
2023/10/17 02:59:45;;;;;;;1.25;0.70;;;20.80;43.00;;;;;;5010315;28;20041;-53
2023/10/17 03:02:11;;;;;;;1.02;0.60;;;20.70;43.00;;;;;;5010297;28;20037;-50
2023/10/17 03:04:41;;;;;;;1.23;0.65;;;20.70;43.00;;;;;;5009245;28;20034;-49
2023/10/17 03:07:10;;;;;;;1.55;0.70;;;20.70;43.00;;;;;;5009721;28;20487;-51
2023/10/17 03:09:43;;;;;;;2.95;0.73;;;20.80;43.00;;;;;;4993342;28;20033;-52
2023/10/17 03:12:18;;;;;;;1.52;0.80;;;20.80;43.00;;;;;;5009340;28;20049;-52
2023/10/17 03:17:11;;;;;;;1.98;1.08;;;20.80;43.00;;;;;;4992040;28;20141;-50
2023/10/17 03:19:39;;;;;;;2.47;0.90;;;20.80;43.00;;;;;;5009957;28;20057;-51
2023/10/17 03:24:51;;;;;;;0.73;0.60;;;20.70;42.90;;;;;;4992045;28;20064;-51
2023/10/17 03:27:35;;;;;;;1.52;1.00;;;20.70;42.90;;;;;;5008694;28;20045;-52
2023/10/17 03:30:11;;;;;;;0.88;0.57;;;20.80;43.00;;;;;;5006676;28;20030;-53
2023/10/17 03:35:29;;;;;;;0.95;0.70;;;20.70;42.90;;;;;;4963354;28;20042;-52
2023/10/17 03:37:55;;;;;;;1.88;1.00;;;20.70;42.90;;;;;;5009926;28;20037;-52
2023/10/17 03:40:30;;;;;;;0.75;0.68;;;20.70;42.90;;;;;;5009758;28;20034;-53
2023/10/17 03:43:01;;;;;;;1.83;0.80;;;20.70;42.90;;;;;;5008977;28;20032;-47
2023/10/17 03:45:34;;;;;;;1.65;0.70;;;20.70;42.90;;;;;;5009348;28;20040;-50
2023/10/17 03:48:04;;;;;;;1.10;0.70;;;20.70;42.90;;;;;;5009223;28;20040;-53
2023/10/17 03:50:32;;;;;;;1.75;0.90;;;20.70;42.90;;;;;;5007857;28;20535;-52
2023/10/17 03:55:43;;;;;;;1.98;0.90;;;20.70;42.90;;;;;;5009004;28;20034;-52
2023/10/17 03:58:29;;;;;;;2.10;0.75;;;20.70;42.90;;;;;;5009924;28;20468;-49
2023/10/17 04:01:00;;;;;;;1.83;0.70;;;20.70;42.90;;;;;;5008414;28;20429;-52
2023/10/17 04:08:35;;;;;;;1.27;0.70;;;20.70;42.90;;;;;;5009943;28;20030;-53
2023/10/17 04:11:36;;;;;;;1.80;0.90;;;20.70;42.90;;;;;;5008035;28;20076;-49
2023/10/17 04:13:56;;;;;;;1.20;0.82;;;20.70;42.90;;;;;;5005465;28;20532;-52
2023/10/17 04:16:39;;;;;;;0.68;0.50;;;20.70;42.90;;;;;;4991420;28;20045;-51
2023/10/17 04:19:08;;;;;;;1.13;0.88;;;20.70;43.60;;;;;;5009742;28;20018;-53
2023/10/17 04:21:51;;;;;;;1.38;0.80;;;20.70;42.90;;;;;;5009453;28;20030;-50
2023/10/17 04:24:26;;;;;;;1.90;0.70;;;20.70;42.90;;;;;;5009560;28;20033;-50
2023/10/17 04:27:05;;;;;;;0.73;0.50;;;20.70;42.90;;;;;;5008689;28;20069;-52
2023/10/17 04:29:32;;;;;;;2.22;0.80;;;20.70;42.90;;;;;;5008837;28;20044;-50
2023/10/17 04:32:01;;;;;;;1.55;0.70;;;20.70;42.90;;;;;;5009452;28;20022;-50
2023/10/17 04:34:28;;;;;;;2.25;0.73;;;20.70;42.90;;;;;;5009576;28;20356;-49
2023/10/17 04:36:56;;;;;;;1.45;0.57;;;20.70;42.90;;;;;;5007754;28;20392;-52
2023/10/17 04:44:38;;;;;;;1.70;1.05;;;20.70;42.90;;;;;;5007624;28;20040;-52
2023/10/17 04:47:25;;;;;;;1.48;0.82;;;20.70;42.80;;;;;;5010340;28;20041;-50
2023/10/17 04:49:53;;;;;;;1.75;0.85;;;20.70;42.80;;;;;;5012225;28;20030;-53
2023/10/17 04:53:03;;;;;;;1.05;0.65;;;20.60;42.80;;;;;;5012153;28;20060;-54
2023/10/17 04:55:21;;;;;;;1.67;0.80;;;20.70;42.90;;;;;;5004021;28;20038;-53
2023/10/17 05:03:27;;;;;;;1.65;1.02;;;20.60;42.90;;;;;;5014820;28;20401;-52
2023/10/17 05:06:11;;;;;;;1.55;1.00;;;20.60;42.90;;;;;;5015449;28;20053;-53
2023/10/17 06:17:30;;;;;;;3.03;1.67;;;20.50;43.10;;;;;;5014532;28;20050;-52
2023/10/17 06:19:59;;;;;;;2.20;1.50;;;20.50;43.10;;;;;;5015535;28;20095;-50
2023/10/17 06:30:34;;;;;;;2.33;1.42;;;20.50;43.10;;;;;;5015487;28;20437;-52
2023/10/17 06:33:19;;;;;;;2.75;1.30;;;20.50;43.10;;;;;;5004183;28;20393;-50
2023/10/17 06:35:46;;;;;;;2.03;1.42;;;20.50;43.10;;;;;;5015034;28;20455;-50
2023/10/17 06:38:16;;;;;;;2.15;1.20;;;20.50;43.10;;;;;;5015439;28;20038;-51
2023/10/17 06:40:46;;;;;;;4.38;1.65;;;20.50;43.10;;;;;;5015258;28;20033;-45
2023/10/17 06:43:14;;;;;;;3.97;1.48;;;20.50;43.10;;;;;;5015466;28;20340;-51
2023/10/17 06:45:54;;;;;;;2.28;1.17;;;20.50;43.10;;;;;;5014293;28;20165;-51
2023/10/17 06:49:08;;;;;;;3.17;1.60;;;20.60;43.10;;;;;;5014542;28;20038;-48
2023/10/17 06:52:07;;;;;;;2.55;1.27;;;20.50;43.10;;;;;;5003860;28;20418;-51
2023/10/17 06:54:06;;;;;;;2.28;1.35;;;20.50;43.10;;;;;;5006185;28;20057;-54
2023/10/17 06:56:38;;;;;;;2.78;1.55;;;20.50;43.10;;;;;;5014561;28;20341;-49
2023/10/17 06:59:22;;;;;;;2.60;1.25;;;20.50;43.20;;;;;;5015218;28;20408;-51
2023/10/17 07:02:03;;;;;;;4.63;1.23;;;20.60;43.30;;;;;;4997710;28;20095;-53
2023/10/17 07:04:29;;;;;;;3.97;1.50;;;20.50;43.40;;;;;;5013903;28;20341;-55
2023/10/17 07:06:55;;;;;;;1.67;1.15;;;20.60;43.60;;;;;;5014647;28;20120;-49
2023/10/17 07:09:24;;;;;;;2.60;1.23;;;20.60;43.60;;;;;;5002534;28;20879;-52
2023/10/17 07:11:52;;;;;;;2.38;1.00;;;20.60;43.50;;;;;;5012203;28;20038;-52
2023/10/17 07:14:24;;;;;;;3.75;1.23;;;20.60;43.40;;;;;;5011126;28;20037;-50
2023/10/17 07:16:57;;;;;;;2.85;1.30;;;20.60;43.50;;;;;;5014028;28;20053;-52
2023/10/17 07:22:05;;;;;;;2.78;1.00;;;20.60;43.50;;;;;;5013426;28;20041;-48
2023/10/17 07:24:36;;;;;;;2.55;1.33;;;20.70;43.60;;;;;;5014104;28;20437;-53
2023/10/17 07:27:03;;;;;;;2.55;1.10;;;20.60;43.40;;;;;;5015053;28;20037;-49
2023/10/17 07:29:36;;;;;;;3.05;1.25;;;20.60;43.40;;;;;;5014657;28;20100;-50
2023/10/17 07:32:09;;;;;;;5.15;1.10;;;20.70;43.40;;;;;;5014241;28;20357;-51
2023/10/17 07:34:36;;;;;;;2.05;1.10;;;20.70;43.40;;;;;;5014653;28;20033;-51
2023/10/17 07:37:22;;;;;;;3.65;1.15;;;20.60;43.30;;;;;;5014597;28;20025;-49
2023/10/17 07:42:40;;;;;;;2.25;1.08;;;20.70;43.30;;;;;;5013145;28;20072;-50
2023/10/17 07:45:15;;;;;;;3.42;1.33;;;20.70;43.30;;;;;;5012612;28;20546;-50
2023/10/17 07:47:43;;;;;;;2.58;1.15;;;20.60;43.20;;;;;;4995216;28;20465;-52
2023/10/17 07:50:13;;;;;;;3.40;1.42;;;20.70;43.20;;;;;;5012403;28;20045;-51
2023/10/17 07:52:43;;;;;;;1.98;1.00;;;20.60;43.10;;;;;;4994580;28;20038;-54
2023/10/17 07:55:23;;;;;;;1.80;1.00;;;20.70;43.20;;;;;;5013201;28;20108;-52
2023/10/17 07:57:52;;;;;;;1.75;1.10;;;20.70;43.20;;;;;;5009508;28;20133;-54
2023/10/17 08:00:33;;;;;;;2.00;0.90;;;20.60;43.10;;;;;;5013434;28;20038;-50
2023/10/17 08:03:17;;;;;;;1.85;0.93;;;20.70;43.20;;;;;;5008584;28;20049;-48
2023/10/17 08:06:05;;;;;;;2.47;1.20;;;20.70;43.20;;;;;;5008279;28;20140;-51
2023/10/17 08:08:36;;;;;;;1.58;0.90;;;20.70;43.20;;;;;;5012889;28;20030;-52
2023/10/17 08:11:08;;;;;;;1.80;0.93;;;20.70;43.10;;;;;;5013047;28;20463;-50
2023/10/17 08:13:37;;;;;;;2.38;1.35;;;20.70;43.10;;;;;;5011844;28;20040;-49
2023/10/17 08:16:07;;;;;;;1.48;0.90;;;20.70;43.10;;;;;;5014135;28;20062;-50
2023/10/17 08:18:40;;;;;;;2.50;1.17;;;20.70;43.10;;;;;;5013372;28;20063;-51
2023/10/17 08:23:50;;;;;;;1.30;0.93;;;20.70;43.00;;;;;;5014372;28;20037;-53
2023/10/17 08:26:20;;;;;;;1.85;1.20;;;20.70;43.10;;;;;;5017444;28;20040;-51
2023/10/17 08:28:47;;;;;;;2.10;1.10;;;20.70;43.10;;;;;;5017698;28;20026;-49
2023/10/17 08:36:46;;;;;;;1.45;1.00;;;20.70;43.10;;;;;;5017673;28;20108;-48
2023/10/17 08:42:14;;;;;;;1.40;0.93;;;20.70;43.10;;;;;;5016760;28;20025;-49
2023/10/17 08:44:50;;;;;;;1.52;0.95;;;20.70;43.20;;;;;;5017436;28;20285;-52
2023/10/17 08:47:18;;;;;;;1.17;0.85;;;20.70;43.20;;;;;;5017352;28;20044;-52
2023/10/17 08:49:44;;;;;;;1.48;1.00;;;20.70;43.20;;;;;;5017752;28;20038;-48
2023/10/17 08:52:24;;;;;;;2.20;1.13;;;20.70;43.30;;;;;;5017026;28;20040;-52
2023/10/17 08:54:53;;;;;;;2.72;0.98;;;20.70;43.30;;;;;;5017140;28;20048;-51
2023/10/17 08:57:20;;;;;;;1.48;1.00;;;20.70;43.30;;;;;;5017408;28;20468;-50
2023/10/17 09:05:13;;;;;;;1.50;0.95;;;20.70;43.40;;;;;;5017192;28;20352;-48
2023/10/17 09:07:43;;;;;;;1.38;0.90;;;20.60;43.40;;;;;;5016053;28;20117;-49
2023/10/17 09:10:39;;;;;;;1.10;0.90;;;20.70;43.50;;;;;;5017654;28;20034;-53
2023/10/17 09:15:57;;;;;;;1.50;0.90;;;20.60;43.50;;;;;;5016969;28;20103;-47
2023/10/17 09:18:27;;;;;;;1.70;1.00;;;20.60;43.60;;;;;;5016183;28;20037;-49
2023/10/17 09:20:57;;;;;;;2.97;1.08;;;20.60;43.70;;;;;;5016606;28;20338;-53
2023/10/17 09:23:28;;;;;;;2.17;1.20;;;20.60;43.70;;;;;;5016667;28;20068;-51
2023/10/17 09:26:00;;;;;;;1.48;1.10;;;20.60;43.70;;;;;;5013405;28;20045;-52
2023/10/17 09:28:28;;;;;;;1.63;1.15;;;20.60;43.80;;;;;;5016623;28;20072;-48
2023/10/17 09:31:16;;;;;;;2.53;1.00;;;20.60;44.00;;;;;;5016488;28;20037;-53
2023/10/17 09:33:48;;;;;;;2.95;1.27;;;20.60;44.10;;;;;;5015198;28;20085;-50
2023/10/17 09:36:17;;;;;;;1.33;1.10;;;20.60;44.10;;;;;;5015808;28;20040;-50
2023/10/17 09:38:43;;;;;;;1.50;0.90;;;20.60;44.20;;;;;;5013996;28;20037;-52
2023/10/17 09:41:17;;;;;;;1.92;1.27;;;20.60;44.20;;;;;;5015140;28;20318;-56
2023/10/17 09:43:53;;;;;;;1.67;1.00;;;20.60;44.20;;;;;;5014832;28;20076;-59
2023/10/17 09:46:25;;;;;;;2.25;1.02;;;20.60;44.30;;;;;;4997685;28;20425;-56
2023/10/17 09:48:52;;;;;;;1.83;0.90;;;20.60;44.30;;;;;;5015470;28;20348;-52
2023/10/17 09:51:25;;;;;;;2.13;1.20;;;20.60;44.30;;;;;;5016478;28;20141;-52
2023/10/17 09:54:04;;;;;;;1.75;1.05;;;20.60;44.30;;;;;;5016045;28;20033;-51
2023/10/17 09:56:42;;;;;;;1.48;0.90;;;20.60;44.60;;;;;;5016617;28;20037;-52
2023/10/17 09:59:16;;;;;;;2.03;1.15;;;20.60;45.00;;;;;;5014701;28;20083;-49
2023/10/17 10:01:49;;;;;;;1.98;1.00;;;20.70;45.20;;;;;;4997039;28;20034;-51
2023/10/17 10:04:18;;;;;;;2.85;1.10;;;20.70;45.40;;;;;;5014069;28;20149;-51
2023/10/17 10:06:44;;;;;;;2.38;1.08;;;20.70;45.40;;;;;;5013650;28;20372;-48
2023/10/17 10:09:13;;;;;;;1.77;0.80;;;20.70;45.40;;;;;;5015168;28;20025;-53
2023/10/17 10:11:48;;;;;;;2.70;1.05;;;20.70;45.50;;;;;;5016031;28;20042;-50
2023/10/17 10:14:35;;;;;;;2.42;1.20;;;20.80;45.60;;;;;;4996446;28;20076;-52
2023/10/17 10:17:04;;;;;;;2.03;1.10;;;20.70;45.50;;;;;;5000675;28;20045;-53
2023/10/17 10:19:43;;;;;;;3.58;0.93;;;20.80;45.60;;;;;;5014569;28;20428;-52
2023/10/17 10:22:10;;;;;;;3.13;1.10;;;20.80;45.70;;;;;;5013752;28;20357;-54
2023/10/17 10:24:37;;;;;;;3.67;1.10;;;20.80;45.70;;;;;;5013374;28;20026;-52
2023/10/17 10:27:25;;;;;;;1.80;0.90;;;20.80;45.70;;;;;;5012798;28;20026;-59
2023/10/17 10:30:18;;;;;;;3.58;0.90;;;20.80;45.70;;;;;;5009827;28;20575;-48
2023/10/17 10:32:44;;;;;;;3.25;0.93;;;20.80;45.70;;;;;;5014030;28;20029;-53
2023/10/17 10:35:11;;;;;;;2.35;1.00;;;20.80;45.60;;;;;;5013978;28;20034;-52
2023/10/17 10:37:54;;;;;;;3.33;0.95;;;20.80;45.40;;;;;;5011768;28;20022;-48
2023/10/17 10:40:25;;;;;;;1.77;1.02;;;20.90;45.30;;;;;;5010496;28;20068;-52
2023/10/17 10:42:58;;;;;;;10.98;1.48;;;21.00;45.20;;;;;;5014884;28;20098;-51
2023/10/17 10:45:55;;;;;;;9.40;1.50;;;21.10;45.10;;;;;;5011296;28;20361;-50
2023/10/17 10:48:21;;;;;;;7.43;1.50;;;21.20;44.90;;;;;;5012906;28;20034;-45
2023/10/17 10:50:49;;;;;;;5.72;1.10;;;21.30;44.80;;;;;;5012867;28;20109;-52
2023/10/17 10:53:29;;;;;;;6.10;1.50;;;21.40;44.70;;;;;;5009580;28;20026;-50
2023/10/17 10:56:03;;;;;;;4.70;1.10;;;21.40;44.70;;;;;;5008157;28;20088;-46
2023/10/17 10:58:34;;;;;;;4.63;1.10;;;21.40;44.80;;;;;;5002849;28;20054;-47
2023/10/17 11:01:02;;;;;;;3.25;1.30;;;21.50;44.80;;;;;;5009972;28;20037;-47
2023/10/17 11:03:30;;;;;;;6.63;0.80;;;21.50;44.70;;;;;;5010446;28;20030;-47
2023/10/17 11:05:58;;;;;;;5.88;0.98;;;21.60;44.60;;;;;;4993876;28;20041;-51
2023/10/17 11:08:25;;;;;;;6.45;1.10;;;21.60;44.50;;;;;;5007925;28;20042;-52
2023/10/17 11:10:59;;;;;;;19.27;1.65;;;21.80;44.70;;;;;;5010484;28;20402;-46
2023/10/17 11:13:36;;;;;;;11.45;1.60;;;21.80;44.80;;;;;;5010505;28;20113;-47
2023/10/17 11:16:05;;;;;;;10.68;2.05;;;21.90;44.70;;;;;;5007743;28;20046;-48
2023/10/17 11:18:39;;;;;;;9.63;1.52;;;22.00;44.70;;;;;;5012371;28;20515;-49
2023/10/17 11:21:08;;;;;;;6.97;1.38;;;22.10;44.70;;;;;;5009965;28;20156;-50
2023/10/17 11:23:50;;;;;;;8.50;1.33;;;22.30;44.80;;;;;;5009243;28;20030;-48
2023/10/17 11:26:19;;;;;;;13.70;1.42;;;22.30;44.70;;;;;;5009138;28;20519;-47
2023/10/17 11:28:52;;;;;;;9.63;1.52;;;22.40;44.80;;;;;;5011899;28;20109;-47
2023/10/17 11:31:25;;;;;;;10.23;1.50;;;22.50;44.90;;;;;;5014535;28;20053;-51
2023/10/17 11:34:23;;;;;;;7.32;1.35;;;22.50;45.00;;;;;;5009340;28;20126;-51
2023/10/17 11:36:52;;;;;;;6.65;1.50;;;22.60;45.20;;;;;;5009214;28;20071;-52
2023/10/17 11:39:19;;;;;;;9.55;1.52;;;22.70;45.30;;;;;;5011357;28;20364;-51
2023/10/17 11:41:53;;;;;;;7.25;1.60;;;22.70;45.40;;;;;;5012677;28;20089;-50
2023/10/17 11:44:27;;;;;;;12.55;1.20;;;22.70;45.40;;;;;;4995089;28;20038;-52
2023/10/17 11:46:58;;;;;;;7.32;1.58;;;22.70;45.60;;;;;;5012989;28;20096;-49
2023/10/17 11:49:27;;;;;;;7.53;1.00;;;22.70;45.80;;;;;;5014310;28;20137;-48
2023/10/17 11:52:10;;;;;;;4.93;1.67;;;22.70;46.20;;;;;;5014311;28;20081;-48
2023/10/17 11:55:00;;;;;;;5.00;1.08;;;22.70;46.50;;;;;;5012624;28;20095;-52
2023/10/17 11:57:28;;;;;;;4.15;1.02;;;22.50;46.90;;;;;;5016387;28;20041;-51
2023/10/17 11:59:56;;;;;;;4.93;1.27;;;22.50;47.10;;;;;;5014512;28;20337;-52
2023/10/17 12:02:23;;;;;;;6.93;1.15;;;22.50;47.50;;;;;;5015270;28;20036;-52
2023/10/17 12:04:48;;;;;;;4.82;0.88;;;22.40;47.80;;;;;;5014334;28;20021;-51
2023/10/17 12:07:15;;;;;;;4.60;1.23;;;22.40;48.00;;;;;;5015848;28;20049;-47
2023/10/17 12:09:41;;;;;;;3.67;1.10;;;22.30;48.10;;;;;;5017829;28;20062;-51
2023/10/17 12:12:07;;;;;;;3.55;1.02;;;22.30;48.20;;;;;;5018366;28;20114;-48
2023/10/17 12:14:36;;;;;;;4.13;1.55;;;22.30;48.30;;;;;;5018144;28;20029;-51
2023/10/17 12:17:03;;;;;;;7.03;1.55;;;22.30;48.30;;;;;;5014295;28;20054;-49
2023/10/17 12:19:29;;;;;;;6.40;1.17;;;22.30;48.40;;;;;;5016002;28;20377;-50
2023/10/17 12:21:56;;;;;;;3.53;0.95;;;22.20;48.30;;;;;;5016430;28;20034;-49
2023/10/17 12:24:29;;;;;;;5.22;1.27;;;22.20;48.90;;;;;;5016375;28;20034;-48
2023/10/17 12:26:58;;;;;;;2.72;0.90;;;22.20;48.30;;;;;;5014176;28;20524;-48
2023/10/17 12:29:25;;;;;;;2.95;0.82;;;22.20;48.30;;;;;;5017756;28;20045;-50
2023/10/17 12:31:54;;;;;;;3.13;0.70;;;22.20;48.30;;;;;;5017541;28;20057;-48
2023/10/17 12:34:20;;;;;;;3.55;0.98;;;22.20;48.30;;;;;;5017635;28;20030;-47
2023/10/17 12:36:48;;;;;;;2.75;0.90;;;22.20;48.30;;;;;;5017652;28;20087;-48
2023/10/17 12:39:17;;;;;;;4.47;1.05;;;22.10;48.20;;;;;;5017695;28;20034;-54
2023/10/17 12:41:46;;;;;;;1.35;0.63;;;22.10;48.10;;;;;;5017029;28;20032;-50
2023/10/17 12:44:13;;;;;;;3.38;0.88;;;22.10;47.80;;;;;;5013992;28;20029;-50
2023/10/17 12:46:39;;;;;;;4.75;1.02;;;22.10;47.60;;;;;;5015660;28;20037;-49
2023/10/17 12:49:06;;;;;;;5.88;0.63;;;22.10;47.40;;;;;;5015781;28;20049;-53
2023/10/17 12:51:33;;;;;;;5.10;0.98;;;22.00;47.70;;;;;;5013666;28;20357;-55
2023/10/17 12:53:58;;;;;;;4.72;1.08;;;22.10;48.00;;;;;;5015814;28;20025;-51
2023/10/17 12:56:24;;;;;;;6.47;1.65;;;22.10;48.10;;;;;;5015544;28;20030;-49
2023/10/17 12:58:51;;;;;;;3.53;0.77;;;22.10;48.20;;;;;;5017321;28;20038;-50
2023/10/17 13:01:24;;;;;;;4.03;1.00;;;22.10;48.40;;;;;;5016516;28;20052;-49
2023/10/17 13:03:57;;;;;;;3.33;0.90;;;22.10;48.60;;;;;;5015392;28;20053;-51
2023/10/17 13:06:26;;;;;;;3.70;0.77;;;22.10;48.80;;;;;;5013775;28;20052;-49
2023/10/17 13:08:59;;;;;;;2.65;0.80;;;22.10;49.00;;;;;;5014187;28;20025;-47
2023/10/17 13:11:28;;;;;;;3.95;1.13;;;22.10;49.00;;;;;;5015194;28;20353;-49
2023/10/17 13:13:55;;;;;;;2.53;0.63;;;22.10;49.10;;;;;;5014796;28;20380;-46
2023/10/17 13:16:26;;;;;;;2.53;0.70;;;22.10;49.30;;;;;;5015247;28;20237;-48
2023/10/17 13:18:55;;;;;;;2.83;0.90;;;22.10;49.40;;;;;;5013954;28;20103;-54
2023/10/17 13:21:21;;;;;;;4.65;0.80;;;22.10;49.30;;;;;;5015977;28;20434;-50
2023/10/17 13:23:48;;;;;;;3.92;1.15;;;22.10;49.30;;;;;;5016691;28;20033;-47
2023/10/17 13:26:15;;;;;;;2.10;0.80;;;22.10;49.20;;;;;;5016924;28;20037;-47
2023/10/17 13:28:42;;;;;;;4.35;0.90;;;22.10;48.90;;;;;;5015634;28;20310;-51
2023/10/17 13:31:15;;;;;;;3.50;0.90;;;22.10;48.50;;;;;;5014722;28;20084;-49
2023/10/17 13:33:42;;;;;;;0.70;0.50;;;22.10;48.10;;;;;;5012077;28;20049;-50
2023/10/17 13:36:11;;;;;;;1.05;0.65;;;22.00;48.40;;;;;;5014400;28;20367;-47
2023/10/17 13:38:38;;;;;;;1.58;0.70;;;22.00;47.60;;;;;;5014787;28;20421;-51
2023/10/17 13:41:05;;;;;;;1.25;0.75;;;22.00;47.80;;;;;;5015631;28;20057;-47
2023/10/17 13:43:33;;;;;;;1.23;0.60;;;22.00;48.10;;;;;;5012478;28;20121;-50
2023/10/17 13:46:00;;;;;;;0.90;0.60;;;22.10;48.20;;;;;;5014040;28;20069;-47
2023/10/17 13:48:27;;;;;;;1.67;0.80;;;22.10;48.20;;;;;;5013870;28;20120;-47
2023/10/17 13:51:00;;;;;;;1.15;0.60;;;22.00;48.10;;;;;;5012828;28;20122;-47
2023/10/17 13:53:27;;;;;;;1.90;0.80;;;22.00;47.80;;;;;;5011598;28;20064;-46
2023/10/17 13:55:54;;;;;;;1.45;0.65;;;22.00;47.40;;;;;;5013788;28;20033;-50
2023/10/17 13:58:20;;;;;;;0.95;0.70;;;22.00;47.10;;;;;;5015923;28;20038;-51
2023/10/17 14:00:51;;;;;;;1.40;0.70;;;22.00;46.80;;;;;;5015412;28;20432;-52
2023/10/17 14:03:17;;;;;;;1.08;0.60;;;22.00;46.50;;;;;;5013249;28;20088;-51
2023/10/17 14:05:49;;;;;;;2.13;0.70;;;22.00;46.30;;;;;;4998442;28;20034;-51
2023/10/17 14:08:22;;;;;;;1.08;0.57;;;21.90;46.00;;;;;;5014920;28;20429;-48
2023/10/17 14:10:48;;;;;;;1.20;0.55;;;21.90;45.80;;;;;;5015018;28;20057;-51
2023/10/17 14:13:16;;;;;;;3.88;0.50;;;21.90;45.60;;;;;;5016048;28;20072;-50
2023/10/17 14:15:43;;;;;;;0.75;0.60;;;21.90;45.40;;;;;;5012291;28;20121;-47
2023/10/17 14:18:09;;;;;;;0.80;0.52;;;21.80;45.20;;;;;;5011939;28;20045;-46
2023/10/17 14:20:38;;;;;;;0.73;0.47;;;21.80;45.00;;;;;;5012265;28;20389;-48
2023/10/17 14:23:09;;;;;;;1.77;0.50;;;21.80;44.90;;;;;;5010821;28;20076;-52
2023/10/17 14:28:21;;;;;;;0.70;0.50;;;21.80;44.60;;;;;;5010149;28;20029;-51
2023/10/17 14:30:51;;;;;;;0.90;0.50;;;21.80;44.50;;;;;;5015344;28;20042;-51
2023/10/17 14:33:17;;;;;;;1.75;0.50;;;21.70;44.30;;;;;;5011757;28;20033;-49
2023/10/17 14:35:44;;;;;;;0.57;0.45;;;21.70;44.30;;;;;;5006248;28;20445;-50
2023/10/17 14:38:11;;;;;;;1.10;0.70;;;21.70;44.20;;;;;;4990276;28;20021;-47
2023/10/17 14:40:38;;;;;;;0.60;0.40;;;21.70;44.10;;;;;;5012627;28;20037;-44
2023/10/17 14:43:09;;;;;;;0.73;0.50;;;21.70;44.00;;;;;;4993136;28;20030;-47
2023/10/17 14:45:44;;;;;;;0.82;0.40;;;21.60;43.90;;;;;;5012339;28;20133;-53
2023/10/17 14:48:13;;;;;;;1.42;0.50;;;21.60;44.40;;;;;;5011172;28;20022;-45
2023/10/17 14:50:40;;;;;;;1.45;0.50;;;21.60;43.80;;;;;;5014618;28;20508;-46
2023/10/17 14:53:06;;;;;;;1.10;0.50;;;21.60;43.80;;;;;;5010884;28;20027;-47
2023/10/17 14:55:33;;;;;;;1.65;0.60;;;21.60;43.80;;;;;;5009521;28;20664;-47
2023/10/17 14:58:01;;;;;;;1.17;0.60;;;21.60;43.70;;;;;;5007198;28;20112;-47
2023/10/17 15:00:28;;;;;;;0.80;0.43;;;21.60;43.60;;;;;;5011551;28;20033;-50
2023/10/17 15:02:55;;;;;;;0.75;0.50;;;21.60;43.50;;;;;;5010190;28;20038;-46
2023/10/17 15:05:21;;;;;;;2.13;0.60;;;21.50;43.50;;;;;;5008443;28;20465;-47
2023/10/17 15:07:47;;;;;;;2.60;0.77;;;21.50;43.60;;;;;;5010341;28;20040;-45
2023/10/17 15:10:13;;;;;;;0.82;0.40;;;21.50;43.60;;;;;;5011561;28;20021;-47
2023/10/17 15:12:43;;;;;;;1.10;0.50;;;21.50;43.50;;;;;;5011639;28;21733;-47
2023/10/17 15:15:11;;;;;;;0.75;0.40;;;21.50;43.50;;;;;;5008186;28;20050;-50
2023/10/17 15:17:38;;;;;;;0.70;0.50;;;21.50;43.40;;;;;;5011107;28;20042;-50
2023/10/17 15:20:05;;;;;;;1.73;0.40;;;21.50;43.40;;;;;;5008739;28;20045;-48
2023/10/17 15:22:31;;;;;;;0.82;0.43;;;21.40;43.30;;;;;;5007360;28;20091;-49
2023/10/17 15:24:58;;;;;;;1.27;0.50;;;21.40;43.20;;;;;;5003760;28;20025;-49
2023/10/17 15:27:24;;;;;;;0.85;0.40;;;21.50;43.20;;;;;;5011735;28;20038;-46